Time;durP1;ratioP1;P1;durP2;ratioP2;P2;SDS_P1;SDS_P2;PMS_P1;PMS_P2;Temp;Humidity;BMP_temperature;BMP_pressure;BME280_temperature;BME280_humidity;BME280_pressure;Samples;Min_cycle;Max_cycle;Signal;HPM_P1;HPM_P2
2023/05/28 00:02:12;;;;;;;17.35;6.43;;;13.80;99.90;;;;;;5133144;27;20042;-58
2023/05/28 00:04:38;;;;;;;18.08;6.85;;;13.80;99.90;;;;;;5133256;27;20065;-55
2023/05/28 00:07:03;;;;;;;15.85;6.57;;;13.80;99.90;;;;;;5133128;27;20035;-58
2023/05/28 00:09:29;;;;;;;19.65;7.20;;;13.70;99.90;;;;;;5133232;27;20039;-57
2023/05/28 00:11:56;;;;;;;20.42;6.63;;;13.70;99.90;;;;;;5133085;27;20038;-58
2023/05/28 00:14:21;;;;;;;19.30;6.63;;;13.70;99.90;;;;;;5127709;27;20050;-58
2023/05/28 00:16:47;;;;;;;16.67;6.05;;;13.60;99.90;;;;;;5132631;27;20035;-57
2023/05/28 00:19:13;;;;;;;19.40;6.95;;;13.70;99.90;;;;;;5132957;27;20043;-58
2023/05/28 00:21:38;;;;;;;20.00;6.25;;;13.70;99.90;;;;;;5132823;27;20083;-57
2023/05/28 00:24:05;;;;;;;18.77;6.60;;;13.70;99.90;;;;;;5133041;27;20043;-58
2023/05/28 00:26:30;;;;;;;17.05;6.55;;;13.70;99.90;;;;;;5131703;27;20041;-57
2023/05/28 00:28:56;;;;;;;18.92;6.80;;;13.60;99.90;;;;;;5133251;27;20390;-59
2023/05/28 00:31:22;;;;;;;20.02;5.90;;;13.60;99.90;;;;;;5132867;27;20031;-58
2023/05/28 00:33:47;;;;;;;21.08;7.50;;;13.60;99.90;;;;;;5132832;27;20520;-59
2023/05/28 00:36:13;;;;;;;14.80;6.00;;;13.60;99.90;;;;;;5133012;27;20050;-58
2023/05/28 00:38:39;;;;;;;22.38;6.05;;;13.60;99.90;;;;;;5132882;27;20442;-58
2023/05/28 00:41:05;;;;;;;16.92;6.53;;;13.10;99.90;;;;;;5132693;27;20066;-56
2023/05/28 00:43:31;;;;;;;19.88;7.15;;;13.60;99.90;;;;;;5132803;27;20041;-58
2023/05/28 00:46:01;;;;;;;17.30;7.10;;;13.60;99.90;;;;;;5132167;27;20562;-56
2023/05/28 00:48:27;;;;;;;20.45;7.25;;;13.60;99.90;;;;;;5131520;27;20047;-58
2023/05/28 00:50:53;;;;;;;20.77;6.25;;;13.60;99.90;;;;;;5131178;27;20177;-58
2023/05/28 00:53:19;;;;;;;18.85;7.50;;;13.60;99.90;;;;;;5132646;27;20113;-57
2023/05/28 00:55:45;;;;;;;18.67;6.93;;;13.50;99.90;;;;;;5132159;27;20039;-57
2023/05/28 00:58:11;;;;;;;19.33;7.32;;;13.50;99.90;;;;;;5130282;27;20050;-58
2023/05/28 01:00:37;;;;;;;17.13;6.85;;;13.50;99.90;;;;;;5132330;27;20046;-57
2023/05/28 01:03:06;;;;;;;18.92;7.40;;;13.40;99.90;;;;;;5131719;27;20037;-58
2023/05/28 01:05:32;;;;;;;18.10;7.13;;;13.30;99.90;;;;;;5132298;27;20553;-58
2023/05/28 01:08:00;;;;;;;19.75;7.60;;;13.30;99.90;;;;;;5132361;27;20172;-57
2023/05/28 01:10:26;;;;;;;19.55;8.23;;;13.20;99.90;;;;;;5132101;27;20261;-58
2023/05/28 01:12:53;;;;;;;22.50;6.43;;;13.10;99.90;;;;;;5132052;27;20080;-59
2023/05/28 01:15:19;;;;;;;17.52;6.85;;;13.20;99.90;;;;;;5131032;27;20039;-58
2023/05/28 01:17:47;;;;;;;19.13;7.30;;;13.10;99.90;;;;;;5132329;27;20042;-59
2023/05/28 01:20:13;;;;;;;19.17;6.80;;;13.10;99.90;;;;;;5132506;27;20035;-56
2023/05/28 01:22:45;;;;;;;24.25;6.50;;;13.00;99.90;;;;;;5132678;27;20095;-58
2023/05/28 01:25:12;;;;;;;15.35;7.15;;;12.90;99.90;;;;;;5131914;27;20035;-57
2023/05/28 01:27:41;;;;;;;18.45;7.60;;;13.00;99.90;;;;;;5131594;27;20066;-58
2023/05/28 01:30:11;;;;;;;18.30;6.55;;;13.00;99.90;;;;;;5130937;27;20035;-57
2023/05/28 01:32:40;;;;;;;13.32;5.57;;;12.90;99.90;;;;;;5131437;27;20035;-58
2023/05/28 01:35:08;;;;;;;17.20;6.10;;;12.90;99.90;;;;;;5131769;27;20079;-58
2023/05/28 01:37:36;;;;;;;20.90;6.45;;;12.70;99.90;;;;;;5131901;27;20042;-57
2023/05/28 01:40:02;;;;;;;21.50;6.57;;;12.70;99.90;;;;;;5131193;27;20051;-57
2023/05/28 01:42:30;;;;;;;18.52;6.63;;;12.80;99.90;;;;;;5129672;27;20056;-58
2023/05/28 01:44:57;;;;;;;23.20;7.70;;;12.80;99.90;;;;;;5130932;27;20043;-58
2023/05/28 01:47:24;;;;;;;17.05;6.43;;;12.80;99.90;;;;;;5131836;27;20034;-57
2023/05/28 01:49:50;;;;;;;18.23;6.00;;;12.90;99.90;;;;;;5131784;27;20049;-57
2023/05/28 01:52:16;;;;;;;18.63;5.93;;;12.80;99.90;;;;;;5131350;27;20060;-57
2023/05/28 01:54:42;;;;;;;22.23;7.00;;;12.80;99.90;;;;;;5131424;27;20430;-58
2023/05/28 01:57:07;;;;;;;20.58;5.95;;;12.80;99.90;;;;;;5131554;27;20046;-58
2023/05/28 01:59:33;;;;;;;21.33;6.28;;;12.80;99.90;;;;;;5131232;27;20034;-59
2023/05/28 02:01:59;;;;;;;17.90;5.28;;;12.70;99.90;;;;;;5131441;27;20053;-59
2023/05/28 02:04:25;;;;;;;15.98;6.25;;;12.80;99.90;;;;;;5130882;27;20054;-59
2023/05/28 02:06:51;;;;;;;18.60;6.82;;;12.70;99.90;;;;;;5131271;27;20042;-58
2023/05/28 02:09:16;;;;;;;15.00;6.28;;;12.70;99.90;;;;;;5113044;27;20095;-58
2023/05/28 02:11:42;;;;;;;18.50;6.80;;;12.60;99.90;;;;;;5131575;27;20067;-58
2023/05/28 02:14:09;;;;;;;21.70;7.97;;;12.70;99.90;;;;;;5131238;27;20042;-56
2023/05/28 02:16:35;;;;;;;20.25;7.65;;;12.70;99.90;;;;;;5130773;27;20047;-58
2023/05/28 02:19:00;;;;;;;16.45;7.93;;;12.60;99.90;;;;;;5130949;27;20046;-58
2023/05/28 02:21:28;;;;;;;18.98;6.25;;;12.60;99.90;;;;;;5130859;27;20043;-58
2023/05/28 02:23:53;;;;;;;20.25;7.80;;;12.60;99.90;;;;;;5131241;27;20505;-57
2023/05/28 02:26:20;;;;;;;18.52;7.60;;;12.60;99.90;;;;;;5131187;28;20277;-58
2023/05/28 02:28:46;;;;;;;20.00;6.47;;;12.60;99.90;;;;;;5129319;28;20043;-58
2023/05/28 02:31:12;;;;;;;18.38;6.47;;;12.50;99.90;;;;;;5131056;28;20415;-58
2023/05/28 02:33:39;;;;;;;20.00;6.43;;;12.50;99.90;;;;;;5130357;28;20038;-58
2023/05/28 02:36:06;;;;;;;18.63;6.32;;;12.40;99.90;;;;;;5131105;28;20128;-58
2023/05/28 02:38:32;;;;;;;17.00;6.95;;;12.40;99.90;;;;;;5130591;28;20054;-58
2023/05/28 02:40:57;;;;;;;20.00;6.93;;;12.40;99.90;;;;;;5130614;27;20035;-55
2023/05/28 02:43:23;;;;;;;19.55;8.02;;;12.30;99.90;;;;;;5134016;27;20054;-56
2023/05/28 02:45:49;;;;;;;19.33;7.53;;;12.20;99.90;;;;;;5134577;27;20031;-58
2023/05/28 02:48:15;;;;;;;16.05;5.53;;;12.20;99.90;;;;;;5134962;27;20118;-58
2023/05/28 02:50:40;;;;;;;23.58;6.43;;;12.20;99.90;;;;;;5135276;27;20046;-59
2023/05/28 02:53:06;;;;;;;18.63;7.05;;;12.10;99.90;;;;;;5135261;27;20035;-58
2023/05/28 02:55:32;;;;;;;17.00;5.93;;;12.10;99.90;;;;;;5134881;27;20170;-58
2023/05/28 02:57:57;;;;;;;18.17;6.63;;;12.00;99.90;;;;;;5134575;27;20035;-59
2023/05/28 03:00:23;;;;;;;15.00;5.85;;;12.00;99.90;;;;;;5134777;27;20031;-57
2023/05/28 03:02:49;;;;;;;25.38;7.85;;;12.00;99.90;;;;;;5134769;27;20059;-56
2023/05/28 03:05:15;;;;;;;25.90;6.45;;;12.10;99.90;;;;;;5134495;27;20066;-57
2023/05/28 03:07:40;;;;;;;16.17;5.93;;;12.00;99.90;;;;;;5134563;27;20039;-58
2023/05/28 03:10:07;;;;;;;23.63;6.72;;;12.00;99.90;;;;;;5115998;27;20062;-59
2023/05/28 03:12:32;;;;;;;18.60;5.70;;;12.00;99.90;;;;;;5132727;27;20031;-59
2023/05/28 03:14:58;;;;;;;23.15;6.38;;;12.00;99.90;;;;;;5133329;27;20153;-57
2023/05/28 03:17:24;;;;;;;15.48;6.57;;;12.00;99.90;;;;;;5133934;27;20038;-58
2023/05/28 03:19:49;;;;;;;24.38;6.38;;;12.10;99.90;;;;;;5116029;27;20038;-56
2023/05/28 03:22:16;;;;;;;22.77;6.63;;;12.10;99.90;;;;;;5134401;27;20043;-57
2023/05/28 03:24:42;;;;;;;16.95;6.82;;;12.10;99.90;;;;;;5134054;27;20466;-58
2023/05/28 03:27:07;;;;;;;18.70;6.40;;;12.10;99.90;;;;;;5133886;27;20078;-59
2023/05/28 03:29:33;;;;;;;18.63;5.80;;;12.10;99.90;;;;;;5134402;27;20067;-59
2023/05/28 03:31:59;;;;;;;20.70;6.00;;;12.10;99.90;;;;;;5135019;27;20466;-59
2023/05/28 03:34:25;;;;;;;18.92;6.30;;;12.00;99.90;;;;;;5133961;27;20039;-57
2023/05/28 03:36:51;;;;;;;15.13;5.95;;;12.00;99.90;;;;;;5133204;27;20054;-56
2023/05/28 03:39:17;;;;;;;18.25;5.95;;;12.00;99.90;;;;;;5134320;27;20394;-58
2023/05/28 03:41:44;;;;;;;17.48;5.55;;;12.00;99.90;;;;;;5133969;27;20110;-58
2023/05/28 03:44:10;;;;;;;20.35;5.85;;;11.90;99.90;;;;;;5133928;27;20039;-58
2023/05/28 03:46:35;;;;;;;17.13;6.18;;;12.00;99.90;;;;;;5133602;27;20027;-57
2023/05/28 03:49:01;;;;;;;16.00;5.40;;;11.90;99.90;;;;;;5132590;27;20150;-58
2023/05/28 03:51:27;;;;;;;18.73;6.57;;;12.00;99.90;;;;;;5132085;27;20031;-57
2023/05/28 03:53:53;;;;;;;21.02;5.40;;;11.90;99.90;;;;;;5132425;27;20039;-58
2023/05/28 03:56:19;;;;;;;18.13;6.82;;;11.90;99.90;;;;;;5131349;28;20494;-58
2023/05/28 03:58:45;;;;;;;20.27;6.13;;;11.90;99.90;;;;;;5132155;28;20027;-57
2023/05/28 04:01:12;;;;;;;19.05;6.20;;;11.90;99.90;;;;;;5113706;28;20042;-56
2023/05/28 04:03:37;;;;;;;19.52;5.57;;;11.80;99.90;;;;;;5132976;28;20107;-58
2023/05/28 04:06:03;;;;;;;22.70;5.78;;;11.80;99.90;;;;;;5132294;28;20598;-57
2023/05/28 04:08:29;;;;;;;18.90;5.80;;;11.70;99.90;;;;;;5132402;28;20039;-58
2023/05/28 04:10:55;;;;;;;19.60;5.95;;;11.70;99.90;;;;;;5132529;28;20091;-58
2023/05/28 04:13:22;;;;;;;16.35;6.35;;;11.60;99.90;;;;;;5131985;28;20054;-58
2023/05/28 04:15:47;;;;;;;24.02;5.78;;;11.70;99.90;;;;;;5132023;28;20039;-58
2023/05/28 04:18:13;;;;;;;22.23;7.13;;;11.60;99.90;;;;;;5129190;28;20516;-58
2023/05/28 04:20:39;;;;;;;22.42;6.10;;;11.60;99.90;;;;;;5113457;28;20047;-58
2023/05/28 04:23:04;;;;;;;21.95;6.32;;;11.60;99.90;;;;;;5127833;28;20042;-59
2023/05/28 04:25:31;;;;;;;18.45;6.20;;;11.60;99.90;;;;;;5113230;28;20051;-57
2023/05/28 04:27:56;;;;;;;17.48;6.47;;;11.70;99.90;;;;;;5131906;28;20371;-57
2023/05/28 04:30:23;;;;;;;21.35;5.80;;;11.70;99.90;;;;;;5131769;28;20042;-58
2023/05/28 04:32:52;;;;;;;19.13;6.18;;;11.80;99.90;;;;;;5130516;28;20043;-58
2023/05/28 04:35:19;;;;;;;17.75;5.45;;;11.80;99.90;;;;;;5111377;28;20095;-57
2023/05/28 04:37:45;;;;;;;18.30;6.10;;;11.80;99.90;;;;;;5131449;28;20043;-57
2023/05/28 04:40:14;;;;;;;22.65;6.07;;;11.80;99.90;;;;;;5114041;28;20031;-58
2023/05/28 04:42:40;;;;;;;19.50;6.07;;;11.90;99.90;;;;;;5132412;28;20363;-59
2023/05/28 04:45:10;;;;;;;18.55;5.90;;;11.90;99.90;;;;;;5131408;28;20042;-58
2023/05/28 04:47:36;;;;;;;16.23;6.22;;;12.00;99.90;;;;;;5093170;27;1091847;-57
2023/05/28 04:50:04;;;;;;;15.75;6.43;;;12.00;99.90;;;;;;5132738;27;20046;-57
2023/05/28 04:52:35;;;;;;;16.08;5.72;;;12.10;99.90;;;;;;5129945;27;20043;-58
2023/05/28 04:55:03;;;;;;;22.27;5.65;;;12.10;99.90;;;;;;5133430;27;20039;-58
2023/05/28 04:57:29;;;;;;;18.02;5.50;;;12.10;99.90;;;;;;5133260;27;20035;-58
2023/05/28 04:59:55;;;;;;;16.33;5.53;;;12.10;99.90;;;;;;5132656;27;20042;-57
2023/05/28 05:02:21;;;;;;;18.02;6.22;;;12.20;99.90;;;;;;5132135;27;20042;-59
2023/05/28 05:04:47;;;;;;;17.17;5.63;;;12.30;99.90;;;;;;5131626;27;20027;-57
2023/05/28 05:07:14;;;;;;;18.90;6.30;;;12.30;99.90;;;;;;5129225;27;20039;-59
2023/05/28 05:09:39;;;;;;;18.77;6.18;;;12.40;99.90;;;;;;5132976;27;20394;-58
2023/05/28 05:12:06;;;;;;;22.77;6.72;;;12.40;99.90;;;;;;5132635;27;20031;-58
2023/05/28 05:14:32;;;;;;;17.55;5.47;;;12.50;99.90;;;;;;5130506;27;20628;-58
2023/05/28 05:16:58;;;;;;;19.92;6.22;;;12.40;99.90;;;;;;5131060;27;20042;-59
2023/05/28 05:19:25;;;;;;;15.80;6.13;;;12.50;99.90;;;;;;5132185;27;20035;-58
2023/05/28 05:21:51;;;;;;;18.55;5.10;;;12.50;99.90;;;;;;5131739;27;20535;-59
2023/05/28 05:24:16;;;;;;;17.63;5.63;;;12.60;99.90;;;;;;5132169;27;20035;-58
2023/05/28 05:26:42;;;;;;;14.85;6.20;;;12.60;99.90;;;;;;5132540;27;20043;-57
2023/05/28 05:29:08;;;;;;;19.15;5.97;;;12.70;99.90;;;;;;5132058;27;20038;-58
2023/05/28 05:31:33;;;;;;;16.08;6.88;;;12.60;99.90;;;;;;5131824;27;20575;-57
2023/05/28 05:33:59;;;;;;;20.08;6.10;;;12.70;99.90;;;;;;5131921;27;20035;-58
2023/05/28 05:36:26;;;;;;;18.55;5.85;;;12.70;99.90;;;;;;5131866;27;20496;-56
2023/05/28 05:38:51;;;;;;;19.60;5.93;;;12.60;99.90;;;;;;5132123;27;20062;-58
2023/05/28 05:41:17;;;;;;;19.63;6.93;;;12.60;99.90;;;;;;5129659;27;20031;-57
2023/05/28 05:43:43;;;;;;;21.27;6.35;;;12.70;99.90;;;;;;5131953;27;20093;-57
2023/05/28 05:46:08;;;;;;;17.63;5.97;;;12.70;99.90;;;;;;5129976;27;20039;-57
2023/05/28 05:48:37;;;;;;;14.85;5.50;;;12.70;99.90;;;;;;5131317;27;20518;-57
2023/05/28 05:51:03;;;;;;;18.80;5.65;;;12.70;99.90;;;;;;5131446;27;20164;-57
2023/05/28 05:53:29;;;;;;;15.93;6.68;;;12.70;99.90;;;;;;5124040;27;20057;-57
2023/05/28 05:55:55;;;;;;;16.75;5.72;;;12.70;99.90;;;;;;5121367;27;20483;-58
2023/05/28 05:58:21;;;;;;;17.63;6.82;;;12.70;99.90;;;;;;5119529;27;20027;-56
2023/05/28 06:00:47;;;;;;;18.77;5.78;;;12.80;99.90;;;;;;5116681;27;20034;-58
2023/05/28 06:03:14;;;;;;;20.52;7.13;;;12.80;99.90;;;;;;5120825;27;20031;-57
2023/05/28 06:05:40;;;;;;;14.57;5.80;;;12.80;99.90;;;;;;5119978;27;20051;-58
2023/05/28 06:08:07;;;;;;;18.75;6.95;;;12.80;99.90;;;;;;5096828;27;20031;-57
2023/05/28 06:10:33;;;;;;;19.70;6.78;;;12.90;99.90;;;;;;5119393;27;20035;-58
2023/05/28 06:13:02;;;;;;;21.92;5.75;;;12.90;99.90;;;;;;5118895;27;20035;-56
2023/05/28 06:15:28;;;;;;;14.23;6.13;;;13.00;99.90;;;;;;5117650;27;20764;-58
2023/05/28 06:17:55;;;;;;;20.40;6.45;;;13.00;99.90;;;;;;5118340;27;20043;-59
2023/05/28 06:20:21;;;;;;;18.05;7.35;;;13.00;99.90;;;;;;5118108;27;20339;-59
2023/05/28 06:22:47;;;;;;;17.67;6.10;;;13.00;99.90;;;;;;5118077;27;20034;-57
2023/05/28 06:25:14;;;;;;;19.42;6.40;;;13.10;99.90;;;;;;5119711;27;20043;-58
2023/05/28 06:27:40;;;;;;;18.48;7.95;;;13.10;99.90;;;;;;5119046;28;20489;-57
2023/05/28 06:30:07;;;;;;;13.18;6.75;;;13.20;99.90;;;;;;5119276;28;20118;-56
2023/05/28 06:32:33;;;;;;;19.00;6.43;;;13.30;99.90;;;;;;5118869;28;20031;-58
2023/05/28 06:34:59;;;;;;;20.23;6.80;;;13.40;99.90;;;;;;5119954;28;20089;-57
2023/05/28 06:37:25;;;;;;;15.38;6.10;;;13.50;99.90;;;;;;5119315;28;20039;-58
2023/05/28 06:39:51;;;;;;;14.68;5.78;;;13.60;99.90;;;;;;5119669;28;20054;-59
2023/05/28 06:42:17;;;;;;;20.27;6.03;;;13.60;99.90;;;;;;5119697;28;20063;-58
2023/05/28 06:44:42;;;;;;;17.30;5.40;;;13.70;99.90;;;;;;5119907;28;20080;-58
2023/05/28 06:47:08;;;;;;;18.23;5.90;;;13.70;99.90;;;;;;5101463;28;20063;-59
2023/05/28 06:49:34;;;;;;;20.85;6.22;;;13.90;99.90;;;;;;5118766;28;20036;-58
2023/05/28 06:51:59;;;;;;;16.02;6.55;;;13.90;99.90;;;;;;5119219;28;20031;-59
2023/05/28 06:54:25;;;;;;;19.10;6.80;;;14.00;99.90;;;;;;5119524;28;20083;-58
2023/05/28 06:56:51;;;;;;;19.05;6.80;;;14.20;99.90;;;;;;5117665;28;20452;-59
2023/05/28 06:59:16;;;;;;;14.43;6.57;;;14.30;99.90;;;;;;5120142;27;20031;-58
2023/05/28 07:01:42;;;;;;;17.98;6.63;;;14.40;99.90;;;;;;5117180;28;20042;-59
2023/05/28 07:04:08;;;;;;;20.33;6.50;;;14.50;99.90;;;;;;5119018;28;20063;-59
2023/05/28 07:06:33;;;;;;;16.52;6.00;;;14.50;99.90;;;;;;5100629;28;20510;-60
2023/05/28 07:08:59;;;;;;;20.75;6.05;;;14.60;99.90;;;;;;5119388;28;20547;-59
2023/05/28 07:11:29;;;;;;;16.88;5.40;;;14.70;99.90;;;;;;5118562;28;20533;-58
2023/05/28 07:13:55;;;;;;;16.63;5.32;;;14.70;99.90;;;;;;5118618;27;20031;-58
2023/05/28 07:16:21;;;;;;;16.52;6.05;;;14.90;99.90;;;;;;5120233;28;20031;-60
2023/05/28 07:18:47;;;;;;;18.10;6.20;;;15.00;99.90;;;;;;5119220;28;20114;-59
2023/05/28 07:21:13;;;;;;;13.88;5.88;;;15.10;99.90;;;;;;5120065;28;21724;-58
2023/05/28 07:23:38;;;;;;;13.68;5.25;;;15.20;99.90;;;;;;5117090;28;20482;-58
2023/05/28 07:26:04;;;;;;;17.25;5.10;;;15.30;99.90;;;;;;5117513;28;20071;-59
2023/05/28 07:28:30;;;;;;;19.45;6.28;;;15.40;99.90;;;;;;5111718;27;20106;-59
2023/05/28 07:30:56;;;;;;;18.35;5.85;;;15.50;99.90;;;;;;5119456;27;20088;-59
2023/05/28 07:33:22;;;;;;;16.25;5.40;;;15.60;99.90;;;;;;5122017;27;20024;-58
2023/05/28 07:35:48;;;;;;;13.23;5.60;;;15.60;99.90;;;;;;5122218;27;20526;-59
2023/05/28 07:38:14;;;;;;;15.25;4.97;;;15.70;99.90;;;;;;5119401;27;20039;-59
2023/05/28 07:40:43;;;;;;;14.93;5.70;;;15.80;99.90;;;;;;5121105;27;20031;-59
2023/05/28 07:43:09;;;;;;;15.07;5.35;;;15.90;99.90;;;;;;5118706;27;20031;-59
2023/05/28 07:45:34;;;;;;;15.80;5.47;;;16.00;99.90;;;;;;5121159;27;20043;-60
2023/05/28 07:48:00;;;;;;;13.35;5.68;;;16.10;99.90;;;;;;5098543;27;20057;-59
2023/05/28 07:50:27;;;;;;;16.90;5.82;;;16.10;99.90;;;;;;5121072;27;20436;-59
2023/05/28 07:52:53;;;;;;;14.50;5.68;;;16.20;99.90;;;;;;5118229;27;20512;-59
2023/05/28 07:55:19;;;;;;;17.63;4.95;;;16.30;99.90;;;;;;5119913;27;20042;-59
2023/05/28 07:57:45;;;;;;;17.88;6.35;;;16.40;99.90;;;;;;5118511;27;20118;-58
2023/05/28 08:00:12;;;;;;;14.15;5.93;;;16.40;99.90;;;;;;5119521;27;20035;-58
2023/05/28 08:02:38;;;;;;;14.70;5.65;;;16.50;99.90;;;;;;5120613;27;20074;-59
2023/05/28 08:05:04;;;;;;;16.35;5.60;;;16.60;99.90;;;;;;5101610;27;20083;-58
2023/05/28 08:07:31;;;;;;;14.90;5.72;;;16.60;99.90;;;;;;5119221;27;20080;-57
2023/05/28 08:09:57;;;;;;;15.10;5.97;;;16.70;99.90;;;;;;5121665;27;20081;-59
2023/05/28 08:12:23;;;;;;;15.23;5.47;;;16.70;99.90;;;;;;5120471;27;20023;-58
2023/05/28 08:14:50;;;;;;;14.68;6.15;;;16.80;99.90;;;;;;5120251;27;20039;-59
2023/05/28 08:17:16;;;;;;;14.93;5.55;;;16.80;99.90;;;;;;5120432;27;20026;-58
2023/05/28 08:19:42;;;;;;;13.80;5.63;;;16.90;99.90;;;;;;5121386;27;20042;-58
2023/05/28 08:22:08;;;;;;;16.50;5.70;;;17.00;99.90;;;;;;5118264;27;20078;-58
2023/05/28 08:24:34;;;;;;;14.00;5.65;;;17.00;99.90;;;;;;5121358;27;20031;-58
2023/05/28 08:26:59;;;;;;;15.82;5.97;;;17.00;99.90;;;;;;5102010;27;20035;-58
2023/05/28 08:29:25;;;;;;;14.82;6.00;;;17.10;99.90;;;;;;5119300;27;20589;-59
2023/05/28 08:31:51;;;;;;;12.95;5.43;;;17.20;99.90;;;;;;5120481;27;20082;-57
2023/05/28 08:34:17;;;;;;;16.73;6.30;;;17.20;99.90;;;;;;5121128;27;20119;-58
2023/05/28 08:36:42;;;;;;;14.93;6.28;;;17.30;99.90;;;;;;5118242;27;20072;-58
2023/05/28 08:39:08;;;;;;;16.67;5.95;;;17.40;99.90;;;;;;5121282;27;20039;-58
2023/05/28 08:41:34;;;;;;;16.02;5.70;;;17.40;99.90;;;;;;5117853;27;20122;-58
2023/05/28 08:44:00;;;;;;;14.43;5.80;;;17.50;99.90;;;;;;5114571;27;20723;-58
2023/05/28 08:46:27;;;;;;;20.48;6.40;;;17.60;99.90;;;;;;5116459;27;20035;-58
2023/05/28 08:48:53;;;;;;;16.42;6.22;;;17.60;99.90;;;;;;5111167;27;20055;-59
2023/05/28 08:51:23;;;;;;;14.98;5.70;;;17.60;99.90;;;;;;5114340;27;20038;-56
2023/05/28 08:53:50;;;;;;;16.48;5.93;;;17.70;99.90;;;;;;5117700;27;20510;-59
2023/05/28 08:56:16;;;;;;;12.93;5.25;;;17.70;99.90;;;;;;5116138;27;20038;-58
2023/05/28 08:58:43;;;;;;;14.13;5.93;;;17.80;99.90;;;;;;5115165;27;20045;-56
2023/05/28 09:01:09;;;;;;;14.50;5.85;;;17.90;99.90;;;;;;5115254;27;20044;-58
2023/05/28 09:03:37;;;;;;;14.48;5.50;;;18.00;99.90;;;;;;5118333;27;20046;-59
2023/05/28 09:06:03;;;;;;;13.93;5.28;;;18.10;99.90;;;;;;5118267;27;20043;-57
2023/05/28 09:08:29;;;;;;;12.73;5.95;;;18.30;99.90;;;;;;5116172;27;20027;-59
2023/05/28 09:11:09;;;;;;;12.98;5.60;;;18.50;99.90;;;;;;5113351;27;20051;-59
2023/05/28 09:13:39;;;;;;;11.63;5.75;;;18.60;99.90;;;;;;5118212;27;20038;-59
2023/05/28 09:16:05;;;;;;;19.65;5.63;;;18.70;99.90;;;;;;5116124;27;20043;-59
2023/05/28 09:18:31;;;;;;;15.32;6.10;;;18.80;99.90;;;;;;5118118;27;20470;-59
2023/05/28 09:21:00;;;;;;;14.48;5.68;;;18.90;99.90;;;;;;5099392;27;20050;-58
2023/05/28 09:23:28;;;;;;;13.02;5.60;;;19.10;99.90;;;;;;5121593;27;20043;-59
2023/05/28 09:25:56;;;;;;;12.00;5.18;;;19.20;99.90;;;;;;5122155;27;20047;-60
2023/05/28 09:28:29;;;;;;;11.43;5.60;;;19.40;99.90;;;;;;5101221;27;20039;-57
2023/05/28 09:31:05;;;;;;;13.73;5.70;;;19.50;99.90;;;;;;5121458;27;20102;-58
2023/05/28 09:33:32;;;;;;;13.93;5.70;;;19.60;99.90;;;;;;5120037;27;20062;-58
2023/05/28 09:36:00;;;;;;;12.95;5.90;;;19.70;99.90;;;;;;5121117;27;20039;-58
2023/05/28 09:38:27;;;;;;;13.27;5.90;;;19.80;99.90;;;;;;5121111;27;20481;-58
2023/05/28 09:40:55;;;;;;;14.55;5.75;;;19.90;99.90;;;;;;5119532;27;20039;-58
2023/05/28 09:43:30;;;;;;;13.20;5.57;;;20.00;99.90;;;;;;5120952;27;20039;-59
2023/05/28 09:46:09;;;;;;;11.73;5.88;;;20.10;99.90;;;;;;5119321;27;20046;-58
2023/05/28 09:48:35;;;;;;;15.13;6.55;;;20.30;99.90;;;;;;5121317;27;20050;-59
2023/05/28 09:51:04;;;;;;;13.48;6.05;;;20.40;99.90;;;;;;5120478;27;20051;-58
2023/05/28 09:53:34;;;;;;;14.35;5.75;;;20.40;99.90;;;;;;5119010;27;20035;-62
2023/05/28 09:56:00;;;;;;;12.85;6.00;;;20.60;99.90;;;;;;5113775;27;20035;-58
2023/05/28 09:58:35;;;;;;;13.18;5.53;;;20.60;99.90;;;;;;5120285;27;20039;-60
2023/05/28 10:01:10;;;;;;;15.15;5.43;;;20.70;99.90;;;;;;5119098;27;20039;-57
2023/05/28 10:03:36;;;;;;;15.38;5.05;;;20.70;99.90;;;;;;5119815;27;20047;-60
2023/05/28 10:06:09;;;;;;;11.50;4.53;;;20.80;99.90;;;;;;5117377;27;20070;-60
2023/05/28 10:08:38;;;;;;;12.68;4.95;;;20.80;99.90;;;;;;5097289;27;20054;-60
2023/05/28 10:11:08;;;;;;;13.18;5.00;;;20.80;99.90;;;;;;5119666;27;20035;-60
2023/05/28 10:13:35;;;;;;;14.77;5.00;;;20.90;99.90;;;;;;5117817;27;20042;-60
2023/05/28 10:16:01;;;;;;;12.68;5.18;;;21.00;99.90;;;;;;5118058;27;20418;-60
2023/05/28 10:18:28;;;;;;;12.75;4.68;;;21.00;99.90;;;;;;5117336;27;20035;-60
2023/05/28 10:20:54;;;;;;;13.73;4.85;;;21.10;99.90;;;;;;5117330;27;20485;-60
2023/05/28 10:23:21;;;;;;;13.23;5.10;;;21.30;99.90;;;;;;5116606;27;20355;-59
2023/05/28 10:25:48;;;;;;;13.05;5.03;;;21.40;99.90;;;;;;5116684;27;20100;-61
2023/05/28 10:28:16;;;;;;;14.05;5.32;;;21.30;99.90;;;;;;5118715;27;20114;-59
2023/05/28 10:30:42;;;;;;;10.18;4.47;;;21.30;99.90;;;;;;5112709;27;20042;-60
2023/05/28 10:33:16;;;;;;;12.82;4.72;;;21.30;99.90;;;;;;5114650;28;20023;-60
2023/05/28 10:35:57;;;;;;;13.80;4.50;;;21.40;99.90;;;;;;5118101;28;20051;-60
2023/05/28 10:38:23;;;;;;;13.77;5.30;;;21.60;99.90;;;;;;5115378;28;20379;-59
2023/05/28 10:40:49;;;;;;;12.18;5.22;;;21.60;99.90;;;;;;5114293;28;20039;-60
2023/05/28 10:43:37;;;;;;;10.35;4.55;;;21.70;99.80;;;;;;5119214;27;20333;-59
2023/05/28 10:46:08;;;;;;;12.75;4.97;;;21.70;99.80;;;;;;5113589;27;20116;-60
2023/05/28 10:48:38;;;;;;;13.27;5.00;;;21.70;99.50;;;;;;5117006;28;20063;-60
2023/05/28 10:51:05;;;;;;;11.93;4.85;;;21.60;99.20;;;;;;5117743;28;20327;-60
2023/05/28 10:53:31;;;;;;;12.35;4.85;;;21.60;99.30;;;;;;5114907;28;20479;-60
2023/05/28 10:55:57;;;;;;;11.85;4.53;;;21.70;99.30;;;;;;5116038;28;20042;-60
2023/05/28 10:58:36;;;;;;;13.45;4.80;;;21.80;99.10;;;;;;5116748;28;20823;-62
2023/05/28 11:01:12;;;;;;;10.98;4.95;;;21.90;98.30;;;;;;5114469;28;20039;-60
2023/05/28 11:03:43;;;;;;;13.07;5.03;;;22.00;98.50;;;;;;5116643;27;20051;-60
2023/05/28 11:06:10;;;;;;;10.07;4.75;;;22.10;97.90;;;;;;5121140;27;20108;-59
2023/05/28 11:08:47;;;;;;;11.48;4.28;;;22.10;97.30;;;;;;5119615;27;20390;-60
2023/05/28 11:11:14;;;;;;;9.93;4.32;;;22.20;96.30;;;;;;5100076;27;20042;-59
2023/05/28 11:13:45;;;;;;;10.65;4.40;;;22.20;96.20;;;;;;5120091;27;20172;-59
2023/05/28 11:16:12;;;;;;;9.85;4.30;;;22.30;95.50;;;;;;5121269;27;20031;-59
2023/05/28 11:18:38;;;;;;;8.60;4.40;;;22.40;95.40;;;;;;5123415;27;20035;-60
2023/05/28 11:21:08;;;;;;;9.30;4.00;;;22.50;95.50;;;;;;5122438;27;20111;-59
2023/05/28 11:23:39;;;;;;;9.15;4.90;;;22.70;95.10;;;;;;5122757;27;20027;-60
2023/05/28 11:26:21;;;;;;;10.63;4.45;;;22.70;95.00;;;;;;5123321;27;20070;-60
2023/05/28 11:28:50;;;;;;;9.38;4.18;;;22.80;94.60;;;;;;5123074;27;20043;-59
2023/05/28 11:31:16;;;;;;;8.30;4.00;;;22.90;94.30;;;;;;5123452;27;20039;-60
2023/05/28 11:33:42;;;;;;;8.43;4.18;;;22.90;94.40;;;;;;5124919;27;20371;-61
2023/05/28 11:36:08;;;;;;;7.95;3.85;;;23.10;94.40;;;;;;5124233;27;20478;-60
2023/05/28 11:38:33;;;;;;;9.50;3.97;;;23.30;93.90;;;;;;5123714;27;20382;-60
2023/05/28 11:41:02;;;;;;;9.73;4.55;;;23.30;93.20;;;;;;5123706;27;20041;-60
2023/05/28 11:43:28;;;;;;;8.73;4.00;;;23.40;93.60;;;;;;5123712;27;20072;-61
2023/05/28 11:46:00;;;;;;;8.55;3.70;;;23.60;93.70;;;;;;5124048;27;20078;-60
2023/05/28 11:48:28;;;;;;;8.05;3.72;;;23.80;93.00;;;;;;5124187;27;20156;-62
2023/05/28 11:51:00;;;;;;;8.70;3.70;;;23.80;91.00;;;;;;5124331;27;20117;-60
2023/05/28 11:53:39;;;;;;;9.70;3.83;;;23.80;91.30;;;;;;5123628;27;20039;-60
2023/05/28 11:56:08;;;;;;;9.13;4.07;;;23.80;90.60;;;;;;5121515;27;23171;-59
2023/05/28 11:58:37;;;;;;;8.02;4.10;;;23.90;91.30;;;;;;5122023;27;20083;-60
2023/05/28 12:01:03;;;;;;;9.07;3.90;;;24.00;91.30;;;;;;5122695;27;20040;-61
2023/05/28 12:03:29;;;;;;;9.38;4.53;;;24.10;91.30;;;;;;5104498;27;20039;-61
2023/05/28 12:05:55;;;;;;;6.43;3.53;;;24.30;91.20;;;;;;5122759;27;20082;-60
2023/05/28 12:08:21;;;;;;;7.25;3.83;;;24.30;90.20;;;;;;5122476;27;20035;-60
2023/05/28 12:10:46;;;;;;;10.15;3.90;;;24.30;89.50;;;;;;5102326;27;20039;-60
2023/05/28 12:13:13;;;;;;;7.85;3.83;;;24.40;88.50;;;;;;5123126;27;20023;-58
2023/05/28 12:15:39;;;;;;;9.95;4.15;;;24.40;88.00;;;;;;5122126;27;20124;-58
2023/05/28 12:18:04;;;;;;;10.75;4.13;;;24.60;87.40;;;;;;5121614;27;20034;-60
2023/05/28 12:20:58;;;;;;;6.90;3.58;;;24.80;86.70;;;;;;5122705;27;20390;-61
2023/05/28 12:23:23;;;;;;;5.77;3.50;;;25.00;82.60;;;;;;5116573;27;20047;-59
2023/05/28 12:25:50;;;;;;;8.60;3.40;;;24.90;84.30;;;;;;5110922;27;20035;-59
2023/05/28 12:28:18;;;;;;;8.27;3.80;;;24.90;83.00;;;;;;5114509;27;20039;-61
2023/05/28 12:30:46;;;;;;;6.88;3.67;;;24.90;81.70;;;;;;5117809;27;20061;-59
2023/05/28 12:33:12;;;;;;;8.27;3.90;;;24.90;81.90;;;;;;5117373;27;20066;-59
2023/05/28 12:35:38;;;;;;;7.28;3.70;;;25.00;80.90;;;;;;5117581;27;20035;-59
2023/05/28 12:38:03;;;;;;;10.45;3.72;;;25.10;79.90;;;;;;5117360;27;20075;-59